Duckwater, Nevada Weather observations

Data are for 10 minute period ending at time listed.
 Day   Time   Solar   Ave.   Ave.  Ave.  Vector  Max.   Baro.   Total    
  of    of     Rad.   Air    Rel.  Wind   Wind   Wind  Press.  Precip.   
Year   Day            Temp.  Hum.  Speed  Dir.   Gust                    
2014   (PST)   w/m2    F      %     mph   deg.    mph    mb.     in.    
-----------------------------------------------------------------------
 263   15:10     14   71.4    47   13.0    86    22.7   999.0   0.00  
 263   15:20     10   71.3    44   10.1    82    16.7   999.0   0.00  
 263   15:30     17   72.5    42    8.6    91    13.9   999.0   0.00  
 263   15:40     35   72.1    46    6.7   122    11.7   999.0   0.00  
 263   15:50     69   70.3    58    6.5   254    10.2   999.0   0.00  
 263   16:00    185   70.1    58    6.1   305     9.0   999.0   0.00  
 263   16:10    331   72.6    46    8.3   319    15.8   999.0   0.00  
 263   16:20    323   74.0    37    9.4   334    13.2   999.0   0.00  
 263   16:30    180   74.0    36    8.7   334    13.6   999.0   0.00  
 263   16:40    104   72.4    38   11.5   339    19.2   999.0   0.00  
 263   16:50     69   71.5    39   10.1   338    17.2   999.0   0.00  
 263   17:00     42   70.1    43   14.6   340    21.9   999.0   0.00  
 263   17:10     23   68.2    49   14.7   338    29.5   999.0   0.00  
 263   17:20     13   66.7    52   17.2   341    25.7   999.0   0.00  
 263   17:30      7   66.3    52   16.4   345    24.8   999.0   0.00  
 263   17:40      3   66.6    50   16.3   344    24.0   999.0   0.00  
 263   17:50      0   66.5    49   16.4   345    28.0   999.0   0.00  
 263   18:00      0   66.2    51   15.5   347    24.0   999.0   0.00  
 263   18:10      0   66.1    51   14.2   350    20.9   999.0   0.00  
 263   18:20      0   65.3    54   12.9     4    23.2   999.0   0.00  
 263   18:30      0   64.6    58    6.2   188    12.1   999.0   0.00  
 263   18:40      0   63.0    65    8.3   265    13.9   999.0   0.01  
 263   18:50      0   61.0    71    6.4   314    10.8   999.0   0.00  
 263   19:00      0   60.4    74    7.9   327    12.0   999.0   0.02  
 263   19:10      0   60.3    77    5.3   314     8.5   999.0   0.01  
 263   19:20      0   59.3    79    4.8   324     8.2   999.0   0.00  
 263   19:30      0   59.0    81    5.7   320     9.2   999.0   0.00  
 263   19:40      0   59.1    83    2.0   263     6.1   999.0   0.00  
 263   19:50      0   58.8    85    2.3   206     6.9   999.0   0.01  
 263   20:00      0   58.5    87    4.2   196     8.8   999.0   0.03  
 263   20:10      0   58.3    86    4.9   217     8.2   999.0   0.04  
 263   20:20      0   57.7    89    3.4   221     5.6   999.0   0.04  
 263   20:30      0   57.6    91    4.3   224     6.0   999.0   0.05  
 263   20:40      0   57.2    92    3.6   225     5.8   999.0   0.07  
 263   20:50      0   56.8    92    1.1   234     3.1   999.0   0.06  
 263   21:00      0   56.7    93    0.8   307     2.4   999.0   0.02  
 263   21:10      0   56.9    93    2.7    60     5.1   999.0   0.01  
 263   21:20      0   57.0    92    3.4    65     5.2   999.0   0.03  
 263   21:30      0   56.7    92    3.3     9     5.5   999.0   0.06  
 263   21:40      0   56.4    92    4.5    10     8.1   999.0   0.03  
 263   21:50      0   56.3    92    3.7    22     6.9   999.0   0.03  
 263   22:00      0   56.4    92    4.8    13     8.9   999.0   0.01  
 263   22:10      0   56.4    91    6.0   350     9.9   999.0   0.00  
 263   22:20      0   56.5    91    5.9   351     9.6   999.0   0.00  
 263   22:30      0   56.6    90    7.4     0    12.2   999.0   0.00  
 263   22:40      0   56.7    91    8.0   357    15.1   999.0   0.00  
 263   22:50      0   56.8    89    7.6   346    14.0   999.0   0.01  
 263   23:00      0   56.9    89    8.8   350    14.8   999.0   0.00  
 263   23:10      0   56.9    90    8.8   338    15.0   999.0   0.00  
 263   23:20      0   56.8    89    7.6   330    12.1   999.0   0.00  
 263   23:30      0   56.9    89    5.3   324     9.9   999.0   0.00  
 263   23:40      0   56.9    88    3.6   343     8.5   999.0   0.00  
 263   23:50      0   56.7    89    2.4     5     5.4   999.0   0.02  
 264    0:00      0   56.5    90    3.6    18     5.6   999.0   0.02  
 264    0:10      0   56.2    91    5.1   350     7.3   999.0   0.03  
 264    0:20      0   55.9    92    4.1     2     6.5   999.0   0.03  
 264    0:30      0   55.8    92    4.2   353     6.9   999.0   0.01  
 264    0:40      0   55.8    92    3.5   341     5.8   999.0   0.01  
 264    0:50      0   55.8    92    3.9     4     6.9   999.0   0.02  
 264    1:00      0   55.7    92    5.0     1     8.0   999.0   0.01  
 264    1:10      0   55.7    92    4.7    13     7.9   999.0   0.00  
 264    1:20      0   55.8    92    4.5     6     7.6   999.0   0.00  
 264    1:30      0   56.0    92    5.8     7    10.1   999.0   0.01  
 264    1:40      0   55.9    92    6.9   316    10.7   999.0   0.00  
 264    1:50      0   55.9    91    4.5   316     8.5   999.0   0.00  
 264    2:00      0   55.9    92    4.9   329     8.3   999.0   0.00  
 264    2:10      0   56.0    92    7.3   343    10.7   999.0   0.00  
 264    2:20      0   55.9    92    7.1   330    11.5   999.0   0.00  
 264    2:30      0   55.9    92    6.8   342    10.5   999.0   0.00  
 264    2:40      0   55.9    92    6.6   353    11.0   999.0   0.00  
 264    2:50      0   55.9    92    6.2   360     9.2   999.0   0.00  
 264    3:00      0   55.9    91    6.4     2    10.5   999.0   0.00  
 264    3:10    999  999.0   999  999.0   999   999.0   999.0  999.00  
 264    3:20      0   56.0    87    7.0     2    11.8   999.0   0.00  
 264    3:30      0   55.9    87    6.6   359    11.0   999.0   0.00  
 264    3:40      0   55.7    87    6.8   350    10.4   999.0   0.00  
 264    3:50      0   55.3    89    6.2   341     9.1   999.0   0.00  
 264    4:00      0   55.0    89    5.2   336     8.8   999.0   0.00  
 264    4:10      0   54.7    89    6.0   328     8.7   999.0   0.00  
 264    4:20      0   54.7    89    5.7   332     8.4   999.0   0.00  
 264    4:30      0   54.7    89    3.7   350     5.1   999.0   0.00  
 264    4:40      0   54.4    90    3.3   337     4.7   999.0   0.00  
 264    4:50      0   54.4    90    2.6   284     4.9   999.0   0.00  
 264    5:00      0   54.0    91    1.9   219     4.2   999.0   0.00  
 264    5:10      0   54.1    91    1.3   235     3.1   999.0   0.00  
 264    5:20      0   54.4    90    0.2   208     1.1   999.0   0.00  
 264    5:30      0   54.5    90    0.8   310     3.9   999.0   0.00  
 264    5:40      4   54.3    90    3.1   316     5.9   999.0   0.00  
 264    5:50      7   54.6    89    2.9   337     5.0   999.0   0.00  
 264    6:00     13   54.6    90    2.2   347     3.9   999.0   0.00  
 264    6:10     27   54.9    89    2.5     9     5.7   999.0   0.00  
 264    6:20     53   55.3    89    1.1    22     2.6   999.0   0.00  
 264    6:30    169   57.1    86    2.2     6     5.2   999.0   0.00  
 264    6:40    200   58.9    81    3.6   351     5.6   999.0   0.00  
 264    6:50    218   59.0    81    4.6   349     6.9   999.0   0.00  
 264    7:00    241   59.1    81    4.9   337     9.2   999.0   0.00  
 264    7:10    275   59.3    80    5.4   339     8.3   999.0   0.00  
 264    7:20    313   59.8    79    5.2   337     8.9   999.0   0.00  
 264    7:30    347   61.1    77    3.4   351     7.1   999.0   0.00  
 264    7:40    378   61.7    75    4.0     4     6.8   999.0   0.00  
 264    7:50    410   61.8    74    4.1    11     6.4   999.0   0.00  
 264    8:00    444   62.2    73    3.9     6     6.6   999.0   0.00  
 264    8:10    436   62.8    71    3.0   351     5.9   999.0   0.00  
 264    8:20    400   63.0    70    2.8   328     5.4   999.0   0.00  
 264    8:30    500   63.1    70    3.0   356     5.3   999.0   0.00  
 264    8:40    569   63.8    66    2.8    18     5.3   999.0   0.00  
 264    8:50    596   64.5    65    1.0    25     3.1   999.0   0.00  
 264    9:00    609   65.0    65    2.3   254     5.6   999.0   0.00  
 264    9:10    628   65.5    58    2.4   124     4.9   999.0   0.00  
 264    9:20    651   66.5    57    4.0   132     8.2   999.0   0.00  
 264    9:30    673   67.4    55    3.9   161     8.0   999.0   0.00  
 264    9:40    702   67.2    56    6.4   170    10.9   999.0   0.00  
 264    9:50    723   67.3    56    7.6   183    12.1   999.0   0.00  
 264   10:00    734   67.7    54    6.6   168    10.1   999.0   0.00  
 264   10:10    738   67.7    55    5.0   160     9.5   999.0   0.00  
 264   10:20    757   68.4    55    5.0   130    11.6   999.0   0.00  
 264   10:30    769   69.1    53    4.9   134     8.8   999.0   0.00  
 264   10:40    784   68.6    54    4.7   121    10.0   999.0   0.00  
 264   10:50    796   69.9    52    4.2   141    10.2   999.0   0.00  
 264   11:00    800   69.9    51    5.4   180    10.7   999.0   0.00  
 264   11:10    800   69.7    52    3.6   123     8.8   999.0   0.00  
 264   11:20    788   70.4    51    5.8   153    10.2   999.0   0.00  
 264   11:30    823   70.5    51    6.8   166    10.9   999.0   0.00  
 264   11:40    842   71.5    50    6.1   145    13.9   999.0   0.00  
 264   11:50    814   71.5    51    6.7   171    11.0   999.0   0.00  
 264   12:00    795   71.6    49    7.1   147    11.8   999.0   0.00  
 264   12:10    853   72.4    49    7.0   163    13.4   999.0   0.00  
 264   12:20    896   73.5    47    6.0   143    12.8   999.0   0.00  
 264   12:30    805   73.3    46    4.8   137    10.3   999.0   0.00  
 264   12:40    540   73.2    47    6.3   158    11.5   999.0   0.00  
 264   12:50    682   73.3    48    7.6   143    12.6   999.0   0.00  
 264   13:00    185   71.6    50    6.0   153    12.3   999.0   0.00  
 264   13:10    128   70.2    53    8.2   134    12.6   999.0   0.00  
 264   13:20     76   69.0    56   10.4   134    14.0   999.0   0.00  
 264   13:30     45   66.3    66    9.6   126    15.6   999.0   0.03  
 264   13:40    279   64.5    72   10.7   127    16.1   999.0   0.04  
 264   13:50    302   66.0    69   10.2   129    15.5   999.0   0.01  
 264   14:00    328   66.5    72    8.8   148    13.7   999.0   0.00  
 264   14:10    282   67.7    67    8.0   151    11.8   999.0   0.00  
 264   14:20    291   68.6    62    4.9    98    16.7   999.0   0.00  
 264   14:30     83   62.4    59   14.9     1    23.7   999.0   0.00  
 264   14:40     43   59.5    64   13.7     7    24.7   999.0   0.00  
 264   14:50     17   58.1    67   10.5     3    21.7   999.0   0.00  
 264   15:00      4   56.8    67   11.9     0    20.8   999.0   0.00  

Return to Duckwater graphs page.


Western Regional Climate Center,wrcc@dri.edu